createdAt,value
2019-01-28T00:03:27.323Z,68.13
2019-01-28T00:08:30.539Z,68.26
2019-01-28T00:13:33.772Z,68.28
2019-01-28T00:18:37.010Z,68.93
2019-01-28T00:23:40.342Z,69.03
2019-01-28T00:28:43.554Z,69.27
2019-01-28T00:33:46.731Z,69.74
2019-01-28T00:38:50.005Z,68.24
2019-01-28T00:43:53.186Z,68.62
2019-01-28T00:48:56.364Z,66.95
2019-01-28T00:53:59.577Z,66.58
2019-01-28T00:59:02.983Z,66.72
2019-01-28T01:04:06.458Z,66.69
2019-01-28T01:09:09.688Z,66.78
2019-01-28T01:14:12.901Z,67.29
2019-01-28T01:19:16.092Z,67.66
2019-01-28T01:24:19.306Z,67.63
2019-01-28T01:29:22.529Z,67.86
2019-01-28T01:34:25.758Z,67.90
2019-01-28T01:39:29.044Z,67.86
2019-01-28T01:44:32.388Z,67.90
2019-01-28T01:49:35.565Z,67.71
2019-01-28T01:54:38.838Z,67.95
2019-01-28T01:59:42.090Z,68.87
2019-01-28T02:04:45.406Z,68.58
2019-01-28T02:09:48.601Z,69.77
2019-01-28T02:14:51.807Z,70.54
2019-01-28T02:19:55.087Z,70.38
2019-01-28T02:24:58.315Z,70.29
2019-01-28T02:30:01.547Z,70.11
2019-01-28T02:35:05.710Z,70.33
2019-01-28T02:40:11.780Z,70.28
2019-01-28T02:45:15.490Z,70.62
2019-01-28T02:50:18.758Z,71.44
2019-01-28T02:55:21.954Z,71.48
2019-01-28T03:00:25.167Z,71.02
2019-01-28T03:05:28.363Z,70.75
2019-01-28T03:10:31.643Z,70.72
2019-01-28T03:15:34.909Z,70.66
2019-01-28T03:20:38.142Z,70.73
2019-01-28T03:25:41.531Z,70.59
2019-01-28T03:30:44.763Z,70.69
2019-01-28T03:35:48.008Z,70.59
2019-01-28T03:40:51.222Z,70.26
2019-01-28T03:45:54.462Z,70.58
2019-01-28T03:50:57.762Z,70.83
2019-01-28T03:56:01.046Z,70.86
2019-01-28T04:01:04.385Z,70.80
2019-01-28T04:06:07.575Z,70.94
2019-01-28T04:11:10.769Z,71.11
2019-01-28T04:16:14.077Z,71.39
2019-01-28T04:21:17.271Z,70.99
2019-01-28T04:26:22.590Z,70.77
2019-01-28T04:31:25.794Z,70.85
2019-01-28T04:36:29.048Z,70.59
2019-01-28T04:41:32.254Z,70.86
2019-01-28T04:46:35.506Z,70.12
2019-01-28T04:51:38.743Z,69.96
2019-01-28T04:56:41.938Z,69.76
2019-01-28T05:01:45.146Z,69.17
2019-01-28T05:06:48.358Z,68.84
2019-01-28T05:11:51.553Z,68.68
2019-01-28T05:16:54.817Z,68.55
2019-01-28T05:21:58.042Z,68.15
2019-01-28T05:27:01.259Z,68.57
2019-01-28T05:32:04.463Z,68.20
2019-01-28T05:37:07.675Z,67.07
2019-01-28T05:42:10.873Z,66.18
2019-01-28T05:47:14.130Z,66.29
2019-01-28T05:52:17.346Z,66.20
2019-01-28T05:57:20.546Z,66.22
2019-01-28T06:02:25.283Z,66.48
2019-01-28T06:07:26.949Z,66.87
2019-01-28T06:12:30.160Z,66.38
2019-01-28T06:17:38.894Z,66.29
2019-01-28T06:22:37.677Z,65.87
2019-01-28T06:27:40.882Z,66.11
2019-01-28T06:32:44.073Z,65.45
2019-01-28T06:37:47.260Z,65.71
2019-01-28T06:42:50.512Z,65.42
2019-01-28T06:47:53.753Z,65.45
2019-01-28T06:52:56.998Z,66.05
2019-01-28T06:58:00.265Z,65.61
2019-01-28T07:03:03.600Z,65.05
2019-01-28T07:08:06.837Z,65.21
2019-01-28T07:13:10.074Z,64.86
2019-01-28T07:18:13.285Z,64.92
2019-01-28T07:23:16.564Z,65.90
2019-01-28T07:28:19.750Z,65.78
2019-01-28T07:33:23.003Z,65.39
2019-01-28T07:38:26.246Z,65.44
2019-01-28T07:43:29.544Z,65.38
2019-01-28T07:48:32.746Z,65.41
2019-01-28T07:53:36.022Z,65.63
2019-01-28T07:58:39.219Z,65.92
2019-01-28T08:03:42.545Z,65.74
2019-01-28T08:08:45.854Z,65.60
2019-01-28T08:13:49.038Z,65.38
2019-01-28T08:18:52.238Z,65.83
2019-01-28T08:23:55.425Z,65.85
2019-01-28T08:28:58.612Z,65.90
2019-01-28T08:34:01.902Z,65.63
2019-01-28T08:39:08.233Z,65.03
2019-01-28T08:44:11.417Z,65.04
2019-01-28T08:49:15.635Z,64.49
2019-01-28T08:54:18.878Z,63.74
2019-01-28T08:59:22.099Z,63.24
2019-01-28T09:04:25.474Z,62.31
2019-01-28T09:09:28.742Z,62.93
2019-01-28T09:14:31.969Z,62.68
2019-01-28T09:19:35.162Z,62.50
2019-01-28T09:24:38.449Z,62.36
2019-01-28T09:29:41.770Z,62.42
2019-01-28T09:34:45.066Z,62.31
2019-01-28T09:39:48.331Z,62.47
2019-01-28T09:44:51.562Z,62.31
2019-01-28T09:49:54.858Z,62.62
2019-01-28T09:54:58.054Z,61.96
2019-01-28T10:00:01.288Z,61.55
2019-01-28T10:05:05.723Z,61.68
2019-01-28T10:10:11.630Z,61.76
2019-01-28T10:15:16.783Z,61.06
2019-01-28T10:20:22.605Z,60.78
2019-01-28T10:25:25.915Z,60.75
2019-01-28T10:30:31.988Z,60.84
2019-01-28T10:35:35.421Z,61.06
2019-01-28T10:40:39.255Z,61.49
2019-01-28T10:45:42.538Z,61.52
2019-01-28T10:50:45.725Z,61.52
2019-01-28T10:55:49.010Z,60.82
2019-01-28T11:00:52.482Z,61.55
2019-01-28T11:05:55.763Z,61.26
2019-01-28T11:10:59.017Z,61.93
2019-01-28T11:16:02.298Z,61.93
2019-01-28T11:21:05.524Z,61.64
2019-01-28T11:26:08.937Z,61.44
2019-01-28T11:31:12.090Z,61.89
2019-01-28T11:36:15.568Z,62.05
2019-01-28T11:41:18.714Z,61.63
2019-01-28T11:46:21.962Z,61.81
2019-01-28T11:51:25.254Z,61.92
2019-01-28T11:56:28.450Z,61.32
2019-01-28T12:01:32.256Z,61.62
2019-01-28T12:06:35.650Z,60.90
2019-01-28T12:11:38.934Z,61.11
2019-01-28T12:16:42.159Z,60.45
2019-01-28T12:21:45.453Z,61.30
2019-01-28T12:26:48.809Z,61.22
2019-01-28T12:31:52.045Z,60.97
2019-01-28T12:36:55.273Z,60.33
2019-01-28T12:41:58.546Z,60.97
2019-01-28T12:47:01.837Z,61.30
2019-01-28T12:52:05.149Z,61.42
2019-01-28T12:57:09.614Z,62.61
2019-01-28T13:02:13.060Z,63.28
2019-01-28T13:07:16.382Z,64.04
2019-01-28T13:12:19.749Z,64.61
2019-01-28T13:17:23.076Z,64.51
2019-01-28T13:22:26.502Z,64.63
2019-01-28T13:27:29.831Z,65.02
2019-01-28T13:32:33.182Z,65.02
2019-01-28T13:37:36.603Z,65.18
2019-01-28T13:42:40.061Z,65.90
2019-01-28T13:47:43.411Z,66.59
2019-01-28T13:52:46.919Z,66.17
2019-01-28T13:57:50.138Z,65.71
2019-01-28T14:02:53.430Z,65.47
2019-01-28T14:07:56.810Z,64.90
2019-01-28T14:13:00.228Z,64.15
2019-01-28T14:18:03.700Z,65.73
2019-01-28T14:23:06.998Z,66.65
2019-01-28T14:28:11.641Z,67.14
2019-01-28T14:33:14.946Z,67.69
2019-01-28T14:38:18.351Z,68.53
2019-01-28T14:43:21.717Z,68.89
2019-01-28T14:48:25.096Z,70.13
2019-01-28T14:53:28.468Z,70.81
2019-01-28T14:58:31.718Z,71.44
2019-01-28T15:03:34.920Z,71.83
2019-01-28T15:08:38.388Z,72.49
2019-01-28T15:13:41.724Z,72.50
2019-01-28T15:18:45.152Z,73.02
2019-01-28T15:23:48.462Z,72.82
2019-01-28T15:28:51.765Z,73.20
2019-01-28T15:33:55.070Z,73.00
2019-01-28T15:38:58.367Z,73.05
2019-01-28T15:44:01.739Z,73.76
2019-01-28T15:49:05.038Z,73.48
2019-01-28T15:54:08.447Z,73.64
2019-01-28T15:59:11.808Z,73.78
2019-01-28T16:04:15.169Z,73.61
2019-01-28T16:09:19.479Z,73.22
2019-01-28T16:14:22.829Z,73.42
2019-01-28T16:19:26.113Z,73.60
2019-01-28T16:24:29.470Z,73.26
2019-01-28T16:29:32.749Z,73.44
2019-01-28T16:34:36.046Z,73.03
2019-01-28T16:39:39.454Z,72.87
2019-01-28T16:44:42.734Z,72.81
2019-01-28T16:49:46.202Z,72.89
2019-01-28T16:54:49.486Z,72.91
2019-01-28T16:59:53.010Z,73.01
2019-01-28T17:04:56.111Z,73.18
2019-01-28T17:09:59.499Z,73.14
2019-01-28T17:15:02.853Z,73.64
2019-01-28T17:20:07.113Z,73.40
2019-01-28T17:25:12.634Z,73.29
2019-01-28T17:30:22.593Z,73.16
2019-01-28T17:35:25.907Z,72.61
2019-01-28T17:40:29.406Z,72.99
2019-01-28T17:45:32.718Z,73.13
2019-01-28T17:50:43.369Z,73.10
2019-01-28T17:55:39.483Z,72.79
2019-01-28T18:00:51.729Z,72.89
2019-01-28T18:05:55.057Z,72.80
2019-01-28T18:10:58.476Z,73.08
2019-01-28T18:16:01.830Z,72.94
2019-01-28T18:21:05.200Z,73.11
2019-01-28T18:26:08.550Z,72.93
2019-01-28T18:31:11.842Z,72.90
2019-01-28T18:36:15.138Z,73.07
2019-01-28T18:41:18.451Z,72.91
2019-01-28T18:46:21.850Z,72.98
2019-01-28T18:51:25.286Z,72.91
2019-01-28T18:56:28.718Z,73.01
2019-01-28T19:01:32.166Z,72.83
2019-01-28T19:06:40.847Z,73.08
2019-01-28T19:11:49.209Z,72.97
2019-01-28T19:17:03.490Z,72.96
2019-01-28T19:22:07.046Z,73.15
2019-01-28T19:27:10.352Z,72.83
2019-01-28T19:32:13.727Z,72.96
2019-01-28T19:37:17.050Z,73.02
2019-01-28T19:42:20.394Z,73.29
2019-01-28T19:47:23.794Z,73.02
2019-01-28T19:52:27.249Z,72.72
2019-01-28T19:57:30.954Z,72.97
2019-01-28T20:02:34.610Z,73.11
2019-01-28T20:07:37.947Z,72.96
2019-01-28T20:12:41.271Z,72.53
2019-01-28T20:17:44.684Z,72.51
2019-01-28T20:22:48.022Z,72.54
2019-01-28T20:27:51.444Z,72.74
2019-01-28T20:32:54.780Z,72.67
2019-01-28T20:37:58.099Z,72.61
2019-01-28T20:43:01.410Z,72.51
2019-01-28T20:48:04.712Z,72.81
2019-01-28T20:53:08.140Z,73.02
2019-01-28T20:58:11.624Z,72.27
2019-01-28T21:03:14.898Z,72.25
2019-01-28T21:08:18.295Z,72.22
2019-01-28T21:13:21.594Z,72.20
2019-01-28T21:18:25.002Z,72.15
2019-01-28T21:23:28.296Z,72.27
2019-01-28T21:28:31.585Z,72.12
2019-01-28T21:33:34.897Z,72.39
2019-01-28T21:38:45.193Z,72.50
2019-01-28T21:43:48.474Z,72.08
2019-01-28T21:48:51.846Z,72.09
2019-01-28T21:53:55.059Z,72.25
2019-01-28T21:58:58.342Z,72.04
2019-01-28T22:04:01.664Z,71.73
2019-01-28T22:09:07.442Z,71.87
2019-01-28T22:14:10.796Z,71.91
2019-01-28T22:19:14.238Z,71.93
2019-01-28T22:24:19.451Z,71.95
2019-01-28T22:29:20.866Z,71.43
2019-01-28T22:34:24.156Z,71.90
2019-01-28T22:39:27.385Z,71.77
2019-01-28T22:44:30.634Z,71.78
2019-01-28T22:49:33.933Z,71.89
2019-01-28T22:54:37.173Z,72.02
2019-01-28T22:59:40.375Z,72.19
2019-01-28T23:04:43.764Z,72.03
2019-01-28T23:09:48.048Z,71.75
2019-01-28T23:14:51.254Z,71.80
2019-01-28T23:19:54.437Z,71.49
2019-01-28T23:24:57.610Z,71.48
2019-01-28T23:30:00.807Z,71.66
2019-01-28T23:35:04.235Z,71.94
2019-01-28T23:40:07.487Z,71.92
2019-01-28T23:45:10.683Z,71.43
2019-01-28T23:50:13.882Z,71.44
2019-01-28T23:55:17.137Z,71.15
